sensor_id;sensor_type;location;lat;lon;timestamp;temperature;humidity
44775;DHT22;31340;51.402;0.016;2023-08-08T00:01:02;16.50;89.70
44775;DHT22;31340;51.402;0.016;2023-08-08T00:03:29;16.60;89.80
44775;DHT22;31340;51.402;0.016;2023-08-08T00:05:57;16.60;90.00
44775;DHT22;31340;51.402;0.016;2023-08-08T00:08:24;16.50;90.00
44775;DHT22;31340;51.402;0.016;2023-08-08T00:10:52;16.50;90.10
44775;DHT22;31340;51.402;0.016;2023-08-08T00:13:19;16.50;90.20
44775;DHT22;31340;51.402;0.016;2023-08-08T00:15:47;16.50;90.30
44775;DHT22;31340;51.402;0.016;2023-08-08T00:18:14;16.40;90.40
44775;DHT22;31340;51.402;0.016;2023-08-08T00:20:42;16.40;90.50
44775;DHT22;31340;51.402;0.016;2023-08-08T00:23:09;16.40;90.70
44775;DHT22;31340;51.402;0.016;2023-08-08T00:25:37;16.40;90.90
44775;DHT22;31340;51.402;0.016;2023-08-08T00:28:04;16.40;91.00
44775;DHT22;31340;51.402;0.016;2023-08-08T00:30:32;16.30;91.00
44775;DHT22;31340;51.402;0.016;2023-08-08T00:33:00;16.30;91.00
44775;DHT22;31340;51.402;0.016;2023-08-08T00:35:27;16.40;91.20
44775;DHT22;31340;51.402;0.016;2023-08-08T00:37:55;16.30;91.20
44775;DHT22;31340;51.402;0.016;2023-08-08T00:40:22;16.30;91.30
44775;DHT22;31340;51.402;0.016;2023-08-08T00:42:50;16.30;91.40
44775;DHT22;31340;51.402;0.016;2023-08-08T00:45:17;16.30;91.50
44775;DHT22;31340;51.402;0.016;2023-08-08T00:47:45;16.30;91.50
44775;DHT22;31340;51.402;0.016;2023-08-08T00:50:13;16.30;91.60
44775;DHT22;31340;51.402;0.016;2023-08-08T00:52:42;16.30;91.70
44775;DHT22;31340;51.402;0.016;2023-08-08T00:55:11;16.30;91.70
44775;DHT22;31340;51.402;0.016;2023-08-08T00:57:39;16.30;91.80
44775;DHT22;31340;51.402;0.016;2023-08-08T01:00:08;16.20;91.80
44775;DHT22;31340;51.402;0.016;2023-08-08T01:02:39;16.30;92.00
44775;DHT22;31340;51.402;0.016;2023-08-08T01:05:08;16.20;92.00
44775;DHT22;31340;51.402;0.016;2023-08-08T01:10:28;16.30;92.20
44775;DHT22;31340;51.402;0.016;2023-08-08T01:13:00;16.30;92.30
44775;DHT22;31340;51.402;0.016;2023-08-08T01:15:30;16.30;92.30
44775;DHT22;31340;51.402;0.016;2023-08-08T01:18:08;16.30;92.30
44775;DHT22;31340;51.402;0.016;2023-08-08T01:20:36;16.30;92.40
44775;DHT22;31340;51.402;0.016;2023-08-08T01:25:41;16.30;92.60
44775;DHT22;31340;51.402;0.016;2023-08-08T01:28:09;16.20;92.50
44775;DHT22;31340;51.402;0.016;2023-08-08T01:30:37;16.20;92.60
44775;DHT22;31340;51.402;0.016;2023-08-08T01:33:06;16.20;93.10
44775;DHT22;31340;51.402;0.016;2023-08-08T01:35:38;16.20;92.80
44775;DHT22;31340;51.402;0.016;2023-08-08T01:38:17;16.20;92.90
44775;DHT22;31340;51.402;0.016;2023-08-08T01:40:47;16.20;92.90
44775;DHT22;31340;51.402;0.016;2023-08-08T01:43:15;16.10;92.80
44775;DHT22;31340;51.402;0.016;2023-08-08T01:45:43;16.10;92.90
44775;DHT22;31340;51.402;0.016;2023-08-08T01:48:11;16.10;93.30
44775;DHT22;31340;51.402;0.016;2023-08-08T01:50:39;16.10;93.10
44775;DHT22;31340;51.402;0.016;2023-08-08T01:53:07;16.00;93.10
44775;DHT22;31340;51.402;0.016;2023-08-08T01:55:35;16.00;93.10
44775;DHT22;31340;51.402;0.016;2023-08-08T01:58:03;16.00;93.30
44775;DHT22;31340;51.402;0.016;2023-08-08T02:00:31;16.00;93.30
44775;DHT22;31340;51.402;0.016;2023-08-08T02:02:59;15.90;93.40
44775;DHT22;31340;51.402;0.016;2023-08-08T02:05:28;15.90;93.50
44775;DHT22;31340;51.402;0.016;2023-08-08T02:07:57;15.80;93.60
44775;DHT22;31340;51.402;0.016;2023-08-08T02:10:25;15.90;93.70
44775;DHT22;31340;51.402;0.016;2023-08-08T02:12:53;15.80;93.70
44775;DHT22;31340;51.402;0.016;2023-08-08T02:15:21;15.80;93.80
44775;DHT22;31340;51.402;0.016;2023-08-08T02:17:50;15.70;93.90
44775;DHT22;31340;51.402;0.016;2023-08-08T02:20:18;15.70;94.00
44775;DHT22;31340;51.402;0.016;2023-08-08T02:22:46;15.70;94.10
44775;DHT22;31340;51.402;0.016;2023-08-08T02:25:14;15.60;94.20
44775;DHT22;31340;51.402;0.016;2023-08-08T02:27:42;15.60;94.30
44775;DHT22;31340;51.402;0.016;2023-08-08T02:30:10;15.60;94.40
44775;DHT22;31340;51.402;0.016;2023-08-08T02:32:39;15.50;94.50
44775;DHT22;31340;51.402;0.016;2023-08-08T02:35:08;15.50;94.60
44775;DHT22;31340;51.402;0.016;2023-08-08T02:37:36;15.50;94.70
44775;DHT22;31340;51.402;0.016;2023-08-08T02:40:05;15.50;94.80
44775;DHT22;31340;51.402;0.016;2023-08-08T02:42:33;15.40;94.80
44775;DHT22;31340;51.402;0.016;2023-08-08T02:45:01;15.40;94.90
44775;DHT22;31340;51.402;0.016;2023-08-08T02:47:29;15.40;95.00
44775;DHT22;31340;51.402;0.016;2023-08-08T02:49:57;15.40;95.10
44775;DHT22;31340;51.402;0.016;2023-08-08T02:52:25;15.40;95.20
44775;DHT22;31340;51.402;0.016;2023-08-08T02:54:53;15.30;95.20
44775;DHT22;31340;51.402;0.016;2023-08-08T02:57:22;15.30;95.30
44775;DHT22;31340;51.402;0.016;2023-08-08T02:59:50;15.20;95.30
44775;DHT22;31340;51.402;0.016;2023-08-08T03:02:19;15.20;95.40
44775;DHT22;31340;51.402;0.016;2023-08-08T03:04:47;15.20;95.50
44775;DHT22;31340;51.402;0.016;2023-08-08T03:07:15;15.20;95.60
44775;DHT22;31340;51.402;0.016;2023-08-08T03:09:43;15.20;95.70
44775;DHT22;31340;51.402;0.016;2023-08-08T03:12:12;15.20;95.70
44775;DHT22;31340;51.402;0.016;2023-08-08T03:14:40;15.20;95.80
44775;DHT22;31340;51.402;0.016;2023-08-08T03:17:07;15.20;95.90
44775;DHT22;31340;51.402;0.016;2023-08-08T03:19:35;15.20;95.90
44775;DHT22;31340;51.402;0.016;2023-08-08T03:22:04;15.10;96.00
44775;DHT22;31340;51.402;0.016;2023-08-08T03:24:35;15.10;96.00
44775;DHT22;31340;51.402;0.016;2023-08-08T03:27:03;15.10;96.10
44775;DHT22;31340;51.402;0.016;2023-08-08T03:29:31;15.10;96.20
44775;DHT22;31340;51.402;0.016;2023-08-08T03:31:59;15.00;96.20
44775;DHT22;31340;51.402;0.016;2023-08-08T03:34:30;15.10;96.30
44775;DHT22;31340;51.402;0.016;2023-08-08T03:36:57;15.00;96.70
44775;DHT22;31340;51.402;0.016;2023-08-08T03:39:25;15.00;96.40
44775;DHT22;31340;51.402;0.016;2023-08-08T03:41:54;15.00;96.50
44775;DHT22;31340;51.402;0.016;2023-08-08T03:44:22;15.00;96.60
44775;DHT22;31340;51.402;0.016;2023-08-08T03:46:49;14.90;96.60
44775;DHT22;31340;51.402;0.016;2023-08-08T03:49:21;15.00;96.70
44775;DHT22;31340;51.402;0.016;2023-08-08T03:51:49;14.90;96.60
44775;DHT22;31340;51.402;0.016;2023-08-08T03:54:17;14.90;96.70
44775;DHT22;31340;51.402;0.016;2023-08-08T03:56:45;14.90;96.70
44775;DHT22;31340;51.402;0.016;2023-08-08T03:59:13;14.90;96.80
44775;DHT22;31340;51.402;0.016;2023-08-08T04:01:41;14.90;96.80
44775;DHT22;31340;51.402;0.016;2023-08-08T04:04:08;14.90;96.90
44775;DHT22;31340;51.402;0.016;2023-08-08T04:06:36;14.90;97.00
44775;DHT22;31340;51.402;0.016;2023-08-08T04:09:04;14.90;97.00
44775;DHT22;31340;51.402;0.016;2023-08-08T04:11:32;14.90;97.10
44775;DHT22;31340;51.402;0.016;2023-08-08T04:14:02;14.90;97.00
44775;DHT22;31340;51.402;0.016;2023-08-08T04:16:31;14.90;97.00
44775;DHT22;31340;51.402;0.016;2023-08-08T04:18:59;15.00;97.10
44775;DHT22;31340;51.402;0.016;2023-08-08T04:21:27;15.00;97.10
44775;DHT22;31340;51.402;0.016;2023-08-08T04:23:56;15.00;97.10
44775;DHT22;31340;51.402;0.016;2023-08-08T04:26:24;15.10;97.10
44775;DHT22;31340;51.402;0.016;2023-08-08T04:28:51;15.00;97.10
44775;DHT22;31340;51.402;0.016;2023-08-08T04:31:19;15.10;97.20
44775;DHT22;31340;51.402;0.016;2023-08-08T04:33:47;15.10;97.20
44775;DHT22;31340;51.402;0.016;2023-08-08T04:36:17;15.20;97.30
44775;DHT22;31340;51.402;0.016;2023-08-08T04:38:45;15.20;97.20
44775;DHT22;31340;51.402;0.016;2023-08-08T04:41:12;15.20;97.30
44775;DHT22;31340;51.402;0.016;2023-08-08T04:43:40;15.20;97.30
44775;DHT22;31340;51.402;0.016;2023-08-08T04:46:08;15.30;97.30
44775;DHT22;31340;51.402;0.016;2023-08-08T04:48:37;15.30;97.40
44775;DHT22;31340;51.402;0.016;2023-08-08T04:51:06;15.30;97.40
44775;DHT22;31340;51.402;0.016;2023-08-08T04:53:33;15.30;97.40
44775;DHT22;31340;51.402;0.016;2023-08-08T04:56:01;15.40;97.40
44775;DHT22;31340;51.402;0.016;2023-08-08T04:58:28;15.30;97.40
44775;DHT22;31340;51.402;0.016;2023-08-08T05:00:56;15.40;97.40
44775;DHT22;31340;51.402;0.016;2023-08-08T05:03:24;15.40;97.80
44775;DHT22;31340;51.402;0.016;2023-08-08T05:05:52;15.50;97.50
44775;DHT22;31340;51.402;0.016;2023-08-08T05:08:20;15.50;97.60
44775;DHT22;31340;51.402;0.016;2023-08-08T05:10:49;15.50;97.60
44775;DHT22;31340;51.402;0.016;2023-08-08T05:13:16;15.50;97.60
44775;DHT22;31340;51.402;0.016;2023-08-08T05:15:44;15.50;97.60
44775;DHT22;31340;51.402;0.016;2023-08-08T05:18:14;15.50;97.60
44775;DHT22;31340;51.402;0.016;2023-08-08T05:20:43;15.50;97.70
44775;DHT22;31340;51.402;0.016;2023-08-08T05:23:11;15.60;97.70
44775;DHT22;31340;51.402;0.016;2023-08-08T05:25:38;15.60;97.70
44775;DHT22;31340;51.402;0.016;2023-08-08T05:28:06;15.60;97.80
44775;DHT22;31340;51.402;0.016;2023-08-08T05:30:33;15.60;97.90
44775;DHT22;31340;51.402;0.016;2023-08-08T05:33:01;15.60;97.90
44775;DHT22;31340;51.402;0.016;2023-08-08T05:35:30;15.60;98.00
44775;DHT22;31340;51.402;0.016;2023-08-08T05:37:58;15.60;98.40
44775;DHT22;31340;51.402;0.016;2023-08-08T05:40:25;15.60;98.10
44775;DHT22;31340;51.402;0.016;2023-08-08T05:42:53;15.60;98.20
44775;DHT22;31340;51.402;0.016;2023-08-08T05:45:20;15.60;98.30
44775;DHT22;31340;51.402;0.016;2023-08-08T05:47:49;15.60;98.40
44775;DHT22;31340;51.402;0.016;2023-08-08T05:50:16;15.60;98.50
44775;DHT22;31340;51.402;0.016;2023-08-08T05:52:44;15.60;98.50
44775;DHT22;31340;51.402;0.016;2023-08-08T05:55:12;15.60;98.60
44775;DHT22;31340;51.402;0.016;2023-08-08T05:57:39;15.60;98.80
44775;DHT22;31340;51.402;0.016;2023-08-08T06:00:07;15.70;98.90
44775;DHT22;31340;51.402;0.016;2023-08-08T06:02:42;15.70;99.00
44775;DHT22;31340;51.402;0.016;2023-08-08T06:05:10;15.80;99.10
44775;DHT22;31340;51.402;0.016;2023-08-08T06:07:39;15.80;99.20
44775;DHT22;31340;51.402;0.016;2023-08-08T06:10:07;15.80;99.20
44775;DHT22;31340;51.402;0.016;2023-08-08T06:12:35;15.90;99.30
44775;DHT22;31340;51.402;0.016;2023-08-08T06:15:03;16.00;99.20
44775;DHT22;31340;51.402;0.016;2023-08-08T06:17:34;16.00;99.20
44775;DHT22;31340;51.402;0.016;2023-08-08T06:20:02;16.10;99.20
44775;DHT22;31340;51.402;0.016;2023-08-08T06:22:30;16.10;99.20
44775;DHT22;31340;51.402;0.016;2023-08-08T06:24:57;16.20;99.20
44775;DHT22;31340;51.402;0.016;2023-08-08T06:27:25;16.20;99.20
44775;DHT22;31340;51.402;0.016;2023-08-08T06:29:53;16.20;99.20
44775;DHT22;31340;51.402;0.016;2023-08-08T06:32:20;16.20;99.20
44775;DHT22;31340;51.402;0.016;2023-08-08T06:34:48;16.30;99.20
44775;DHT22;31340;51.402;0.016;2023-08-08T06:37:15;16.30;99.20
44775;DHT22;31340;51.402;0.016;2023-08-08T06:39:43;16.40;99.30
44775;DHT22;31340;51.402;0.016;2023-08-08T06:42:11;16.40;99.30
44775;DHT22;31340;51.402;0.016;2023-08-08T06:44:51;16.50;99.30
44775;DHT22;31340;51.402;0.016;2023-08-08T06:47:18;16.50;99.30
44775;DHT22;31340;51.402;0.016;2023-08-08T06:49:46;16.50;99.30
44775;DHT22;31340;51.402;0.016;2023-08-08T06:52:14;16.60;99.30
44775;DHT22;31340;51.402;0.016;2023-08-08T06:54:42;16.60;99.20
44775;DHT22;31340;51.402;0.016;2023-08-08T06:57:10;16.70;99.20
44775;DHT22;31340;51.402;0.016;2023-08-08T06:59:37;16.70;99.20
44775;DHT22;31340;51.402;0.016;2023-08-08T07:02:05;16.80;99.10
44775;DHT22;31340;51.402;0.016;2023-08-08T07:04:34;16.90;99.00
44775;DHT22;31340;51.402;0.016;2023-08-08T07:07:02;16.90;99.00
44775;DHT22;31340;51.402;0.016;2023-08-08T07:09:30;17.00;98.90
44775;DHT22;31340;51.402;0.016;2023-08-08T07:11:57;17.00;98.80
44775;DHT22;31340;51.402;0.016;2023-08-08T07:14:25;17.10;98.70
44775;DHT22;31340;51.402;0.016;2023-08-08T07:16:53;17.20;98.70
44775;DHT22;31340;51.402;0.016;2023-08-08T07:19:21;17.20;98.60
44775;DHT22;31340;51.402;0.016;2023-08-08T07:21:49;17.30;98.50
44775;DHT22;31340;51.402;0.016;2023-08-08T07:24:17;17.40;98.50
44775;DHT22;31340;51.402;0.016;2023-08-08T07:26:44;17.50;98.30
44775;DHT22;31340;51.402;0.016;2023-08-08T07:29:12;17.50;98.20
44775;DHT22;31340;51.402;0.016;2023-08-08T07:31:40;17.60;98.00
44775;DHT22;31340;51.402;0.016;2023-08-08T07:34:07;17.70;98.00
44775;DHT22;31340;51.402;0.016;2023-08-08T07:36:34;17.70;97.80
44775;DHT22;31340;51.402;0.016;2023-08-08T07:39:02;17.80;97.70
44775;DHT22;31340;51.402;0.016;2023-08-08T07:41:30;17.80;97.60
44775;DHT22;31340;51.402;0.016;2023-08-08T07:43:58;17.80;97.50
44775;DHT22;31340;51.402;0.016;2023-08-08T07:46:26;17.80;97.40
44775;DHT22;31340;51.402;0.016;2023-08-08T07:48:53;17.90;97.30
44775;DHT22;31340;51.402;0.016;2023-08-08T07:51:21;17.90;97.30
44775;DHT22;31340;51.402;0.016;2023-08-08T07:53:48;17.90;97.30
44775;DHT22;31340;51.402;0.016;2023-08-08T07:56:16;17.90;97.20
44775;DHT22;31340;51.402;0.016;2023-08-08T07:58:43;17.90;97.30
44775;DHT22;31340;51.402;0.016;2023-08-08T08:01:11;17.90;97.60
44775;DHT22;31340;51.402;0.016;2023-08-08T08:03:41;17.80;97.80
44775;DHT22;31340;51.402;0.016;2023-08-08T08:06:09;17.80;98.10
44775;DHT22;31340;51.402;0.016;2023-08-08T08:08:37;17.80;98.40
44775;DHT22;31340;51.402;0.016;2023-08-08T08:11:04;17.80;98.60
44775;DHT22;31340;51.402;0.016;2023-08-08T08:13:32;17.70;98.90
44775;DHT22;31340;51.402;0.016;2023-08-08T08:16:00;17.70;99.20
44775;DHT22;31340;51.402;0.016;2023-08-08T08:18:28;17.70;99.40
44775;DHT22;31340;51.402;0.016;2023-08-08T08:20:56;17.60;99.40
44775;DHT22;31340;51.402;0.016;2023-08-08T08:23:23;17.60;99.70
44775;DHT22;31340;51.402;0.016;2023-08-08T08:25:52;17.60;99.90
44775;DHT22;31340;51.402;0.016;2023-08-08T08:28:20;17.60;99.90
44775;DHT22;31340;51.402;0.016;2023-08-08T08:30:47;17.60;99.90
44775;DHT22;31340;51.402;0.016;2023-08-08T08:33:15;17.60;99.90
44775;DHT22;31340;51.402;0.016;2023-08-08T08:35:43;17.60;99.90
44775;DHT22;31340;51.402;0.016;2023-08-08T08:38:11;17.60;99.90
44775;DHT22;31340;51.402;0.016;2023-08-08T08:40:41;17.60;99.90
44775;DHT22;31340;51.402;0.016;2023-08-08T08:43:09;17.60;99.90
44775;DHT22;31340;51.402;0.016;2023-08-08T08:45:38;17.60;99.90
44775;DHT22;31340;51.402;0.016;2023-08-08T08:48:08;17.70;99.90
44775;DHT22;31340;51.402;0.016;2023-08-08T08:50:38;17.60;99.90
44775;DHT22;31340;51.402;0.016;2023-08-08T08:53:07;17.60;99.90
44775;DHT22;31340;51.402;0.016;2023-08-08T08:55:35;17.60;99.90
44775;DHT22;31340;51.402;0.016;2023-08-08T08:58:03;17.60;99.90
44775;DHT22;31340;51.402;0.016;2023-08-08T09:00:33;17.60;99.90
44775;DHT22;31340;51.402;0.016;2023-08-08T09:03:02;17.60;99.90
44775;DHT22;31340;51.402;0.016;2023-08-08T09:05:31;17.60;99.90
44775;DHT22;31340;51.402;0.016;2023-08-08T09:08:03;17.60;99.90
44775;DHT22;31340;51.402;0.016;2023-08-08T09:10:32;17.60;99.90
44775;DHT22;31340;51.402;0.016;2023-08-08T09:13:00;17.60;99.90
44775;DHT22;31340;51.402;0.016;2023-08-08T09:15:34;17.60;99.90
44775;DHT22;31340;51.402;0.016;2023-08-08T09:18:02;17.60;99.90
44775;DHT22;31340;51.402;0.016;2023-08-08T09:20:30;17.60;99.90
44775;DHT22;31340;51.402;0.016;2023-08-08T09:22:57;17.70;99.90
44775;DHT22;31340;51.402;0.016;2023-08-08T09:25:26;17.60;99.90
44775;DHT22;31340;51.402;0.016;2023-08-08T09:27:53;17.70;99.90
44775;DHT22;31340;51.402;0.016;2023-08-08T09:30:21;17.70;99.90
44775;DHT22;31340;51.402;0.016;2023-08-08T09:32:49;17.70;99.90
44775;DHT22;31340;51.402;0.016;2023-08-08T09:35:16;17.70;99.90
44775;DHT22;31340;51.402;0.016;2023-08-08T09:37:44;17.70;99.90
44775;DHT22;31340;51.402;0.016;2023-08-08T09:40:12;17.70;99.90
44775;DHT22;31340;51.402;0.016;2023-08-08T09:42:40;17.70;99.90
44775;DHT22;31340;51.402;0.016;2023-08-08T09:45:09;17.70;99.90
44775;DHT22;31340;51.402;0.016;2023-08-08T09:47:37;17.70;99.90
44775;DHT22;31340;51.402;0.016;2023-08-08T09:50:06;17.70;99.90
44775;DHT22;31340;51.402;0.016;2023-08-08T09:52:34;17.70;99.90
44775;DHT22;31340;51.402;0.016;2023-08-08T09:55:03;17.70;99.90
44775;DHT22;31340;51.402;0.016;2023-08-08T09:57:32;17.70;99.90
44775;DHT22;31340;51.402;0.016;2023-08-08T10:00:00;17.70;99.90
44775;DHT22;31340;51.402;0.016;2023-08-08T10:02:33;17.70;99.90
44775;DHT22;31340;51.402;0.016;2023-08-08T10:05:03;17.80;99.90
44775;DHT22;31340;51.402;0.016;2023-08-08T10:07:31;17.80;99.90
44775;DHT22;31340;51.402;0.016;2023-08-08T10:09:59;17.70;99.90
44775;DHT22;31340;51.402;0.016;2023-08-08T10:12:27;17.70;99.90
44775;DHT22;31340;51.402;0.016;2023-08-08T10:14:55;17.70;99.90
44775;DHT22;31340;51.402;0.016;2023-08-08T10:17:23;17.80;99.90
44775;DHT22;31340;51.402;0.016;2023-08-08T10:19:55;17.80;99.90
44775;DHT22;31340;51.402;0.016;2023-08-08T10:22:24;17.80;99.90
44775;DHT22;31340;51.402;0.016;2023-08-08T10:24:54;17.80;99.90
44775;DHT22;31340;51.402;0.016;2023-08-08T10:27:32;17.80;99.90
44775;DHT22;31340;51.402;0.016;2023-08-08T10:30:07;17.90;99.90
44775;DHT22;31340;51.402;0.016;2023-08-08T10:35:09;18.00;99.90
44775;DHT22;31340;51.402;0.016;2023-08-08T10:37:37;18.10;99.90
44775;DHT22;31340;51.402;0.016;2023-08-08T10:40:06;18.10;99.90
44775;DHT22;31340;51.402;0.016;2023-08-08T10:42:42;18.20;99.90
44775;DHT22;31340;51.402;0.016;2023-08-08T10:45:15;18.20;99.90
44775;DHT22;31340;51.402;0.016;2023-08-08T10:47:43;18.20;99.90
44775;DHT22;31340;51.402;0.016;2023-08-08T10:50:14;18.20;99.90
44775;DHT22;31340;51.402;0.016;2023-08-08T10:55:26;18.30;99.90
44775;DHT22;31340;51.402;0.016;2023-08-08T11:00:37;18.30;99.90
44775;DHT22;31340;51.402;0.016;2023-08-08T11:03:08;18.40;99.90
44775;DHT22;31340;51.402;0.016;2023-08-08T11:05:37;18.40;99.90
44775;DHT22;31340;51.402;0.016;2023-08-08T11:08:06;18.50;99.90
44775;DHT22;31340;51.402;0.016;2023-08-08T11:10:41;18.60;99.90
44775;DHT22;31340;51.402;0.016;2023-08-08T11:13:09;18.70;99.90
44775;DHT22;31340;51.402;0.016;2023-08-08T11:15:37;18.90;99.90
44775;DHT22;31340;51.402;0.016;2023-08-08T11:18:06;19.00;99.90
44775;DHT22;31340;51.402;0.016;2023-08-08T11:20:36;19.10;99.90
44775;DHT22;31340;51.402;0.016;2023-08-08T11:23:04;19.20;99.90
44775;DHT22;31340;51.402;0.016;2023-08-08T11:25:33;19.30;99.90
44775;DHT22;31340;51.402;0.016;2023-08-08T11:28:01;19.40;99.90
44775;DHT22;31340;51.402;0.016;2023-08-08T11:30:32;19.50;99.90
44775;DHT22;31340;51.402;0.016;2023-08-08T11:33:01;19.50;99.90
44775;DHT22;31340;51.402;0.016;2023-08-08T11:35:31;19.60;99.90
44775;DHT22;31340;51.402;0.016;2023-08-08T11:38:02;19.60;99.90
44775;DHT22;31340;51.402;0.016;2023-08-08T11:40:31;19.60;99.90
44775;DHT22;31340;51.402;0.016;2023-08-08T11:42:59;19.60;99.90
44775;DHT22;31340;51.402;0.016;2023-08-08T11:45:27;19.60;99.90
44775;DHT22;31340;51.402;0.016;2023-08-08T11:47:55;19.60;99.90
44775;DHT22;31340;51.402;0.016;2023-08-08T11:50:25;19.70;99.90
44775;DHT22;31340;51.402;0.016;2023-08-08T11:52:55;19.70;99.90
44775;DHT22;31340;51.402;0.016;2023-08-08T11:55:30;19.70;99.90
44775;DHT22;31340;51.402;0.016;2023-08-08T11:57:58;19.70;99.90
44775;DHT22;31340;51.402;0.016;2023-08-08T12:00:29;19.70;99.90
44775;DHT22;31340;51.402;0.016;2023-08-08T12:03:00;19.70;99.90
44775;DHT22;31340;51.402;0.016;2023-08-08T12:05:36;19.70;99.90
44775;DHT22;31340;51.402;0.016;2023-08-08T12:08:06;19.60;99.90
44775;DHT22;31340;51.402;0.016;2023-08-08T12:10:34;19.60;99.90
44775;DHT22;31340;51.402;0.016;2023-08-08T12:13:01;19.60;99.90
44775;DHT22;31340;51.402;0.016;2023-08-08T12:15:31;19.50;99.90
44775;DHT22;31340;51.402;0.016;2023-08-08T12:17:59;19.50;99.90
44775;DHT22;31340;51.402;0.016;2023-08-08T12:20:29;19.50;99.90
44775;DHT22;31340;51.402;0.016;2023-08-08T12:22:57;19.40;99.90
44775;DHT22;31340;51.402;0.016;2023-08-08T12:25:25;19.40;99.90
44775;DHT22;31340;51.402;0.016;2023-08-08T12:27:53;19.40;99.90
44775;DHT22;31340;51.402;0.016;2023-08-08T12:30:21;19.40;99.90
44775;DHT22;31340;51.402;0.016;2023-08-08T12:32:49;19.40;99.90
44775;DHT22;31340;51.402;0.016;2023-08-08T12:35:16;19.30;99.90
44775;DHT22;31340;51.402;0.016;2023-08-08T12:37:44;19.30;99.90
44775;DHT22;31340;51.402;0.016;2023-08-08T12:40:12;19.40;99.90
44775;DHT22;31340;51.402;0.016;2023-08-08T12:42:40;19.40;99.90
44775;DHT22;31340;51.402;0.016;2023-08-08T12:45:08;19.40;99.90
44775;DHT22;31340;51.402;0.016;2023-08-08T12:47:37;19.40;99.90
44775;DHT22;31340;51.402;0.016;2023-08-08T12:50:06;19.50;99.90
44775;DHT22;31340;51.402;0.016;2023-08-08T12:52:35;19.50;99.90
44775;DHT22;31340;51.402;0.016;2023-08-08T12:55:04;19.50;99.90
44775;DHT22;31340;51.402;0.016;2023-08-08T12:57:32;19.50;99.90
44775;DHT22;31340;51.402;0.016;2023-08-08T13:00:00;19.50;99.90
44775;DHT22;31340;51.402;0.016;2023-08-08T13:02:27;19.60;99.90
44775;DHT22;31340;51.402;0.016;2023-08-08T13:04:55;19.60;99.90
44775;DHT22;31340;51.402;0.016;2023-08-08T13:07:23;19.50;99.90
44775;DHT22;31340;51.402;0.016;2023-08-08T13:09:50;19.50;99.90
44775;DHT22;31340;51.402;0.016;2023-08-08T13:12:18;19.50;99.90
44775;DHT22;31340;51.402;0.016;2023-08-08T13:14:45;19.50;99.90
44775;DHT22;31340;51.402;0.016;2023-08-08T13:17:13;19.40;99.90
44775;DHT22;31340;51.402;0.016;2023-08-08T13:19:40;19.40;99.90
44775;DHT22;31340;51.402;0.016;2023-08-08T13:22:08;19.40;99.90
44775;DHT22;31340;51.402;0.016;2023-08-08T13:24:36;19.30;99.90
44775;DHT22;31340;51.402;0.016;2023-08-08T13:27:04;19.30;99.90
44775;DHT22;31340;51.402;0.016;2023-08-08T13:29:31;19.30;99.90
44775;DHT22;31340;51.402;0.016;2023-08-08T13:32:00;19.30;99.90
44775;DHT22;31340;51.402;0.016;2023-08-08T13:34:28;19.30;99.90
44775;DHT22;31340;51.402;0.016;2023-08-08T13:36:56;19.30;99.90
44775;DHT22;31340;51.402;0.016;2023-08-08T13:39:23;19.30;99.90
44775;DHT22;31340;51.402;0.016;2023-08-08T13:41:51;19.30;99.90
44775;DHT22;31340;51.402;0.016;2023-08-08T13:44:18;19.30;99.90
44775;DHT22;31340;51.402;0.016;2023-08-08T13:46:46;19.30;99.90
44775;DHT22;31340;51.402;0.016;2023-08-08T13:49:14;19.20;99.90
44775;DHT22;31340;51.402;0.016;2023-08-08T13:51:42;19.20;99.90
44775;DHT22;31340;51.402;0.016;2023-08-08T13:54:13;19.10;99.90
44775;DHT22;31340;51.402;0.016;2023-08-08T13:56:41;19.10;99.90
44775;DHT22;31340;51.402;0.016;2023-08-08T13:59:08;19.10;99.90
44775;DHT22;31340;51.402;0.016;2023-08-08T14:01:36;19.00;99.90
44775;DHT22;31340;51.402;0.016;2023-08-08T14:04:04;19.00;99.90
44775;DHT22;31340;51.402;0.016;2023-08-08T14:06:31;19.00;99.90
44775;DHT22;31340;51.402;0.016;2023-08-08T14:08:59;19.00;99.90
44775;DHT22;31340;51.402;0.016;2023-08-08T14:11:26;18.90;99.90
44775;DHT22;31340;51.402;0.016;2023-08-08T14:13:54;18.90;99.90
44775;DHT22;31340;51.402;0.016;2023-08-08T14:16:22;18.90;99.90
44775;DHT22;31340;51.402;0.016;2023-08-08T14:18:49;18.90;99.90
44775;DHT22;31340;51.402;0.016;2023-08-08T14:21:17;18.90;99.90
44775;DHT22;31340;51.402;0.016;2023-08-08T14:23:45;18.90;99.90
44775;DHT22;31340;51.402;0.016;2023-08-08T14:26:14;18.80;99.90
44775;DHT22;31340;51.402;0.016;2023-08-08T14:28:42;18.80;99.90
44775;DHT22;31340;51.402;0.016;2023-08-08T14:31:09;18.90;99.90
44775;DHT22;31340;51.402;0.016;2023-08-08T14:33:37;18.80;99.90
44775;DHT22;31340;51.402;0.016;2023-08-08T14:36:05;18.80;99.90
44775;DHT22;31340;51.402;0.016;2023-08-08T14:38:35;18.90;99.90
44775;DHT22;31340;51.402;0.016;2023-08-08T14:41:04;18.90;99.90
44775;DHT22;31340;51.402;0.016;2023-08-08T14:43:31;19.00;99.90
44775;DHT22;31340;51.402;0.016;2023-08-08T14:45:59;19.00;99.90
44775;DHT22;31340;51.402;0.016;2023-08-08T14:48:28;19.10;99.90
44775;DHT22;31340;51.402;0.016;2023-08-08T14:50:55;19.10;99.90
44775;DHT22;31340;51.402;0.016;2023-08-08T14:53:23;19.20;99.90
44775;DHT22;31340;51.402;0.016;2023-08-08T14:55:51;19.30;99.90
44775;DHT22;31340;51.402;0.016;2023-08-08T14:58:19;19.30;99.90
44775;DHT22;31340;51.402;0.016;2023-08-08T15:00:46;19.30;99.90
44775;DHT22;31340;51.402;0.016;2023-08-08T15:03:16;19.40;99.90
44775;DHT22;31340;51.402;0.016;2023-08-08T15:05:46;19.40;99.90
44775;DHT22;31340;51.402;0.016;2023-08-08T15:08:16;19.40;99.90
44775;DHT22;31340;51.402;0.016;2023-08-08T15:10:45;19.40;99.90
44775;DHT22;31340;51.402;0.016;2023-08-08T15:13:13;19.40;99.90
44775;DHT22;31340;51.402;0.016;2023-08-08T15:15:41;19.50;99.90
44775;DHT22;31340;51.402;0.016;2023-08-08T15:18:08;19.50;99.90
44775;DHT22;31340;51.402;0.016;2023-08-08T15:20:36;19.50;99.90
44775;DHT22;31340;51.402;0.016;2023-08-08T15:23:04;19.50;99.90
44775;DHT22;31340;51.402;0.016;2023-08-08T15:25:32;19.50;99.90
44775;DHT22;31340;51.402;0.016;2023-08-08T15:27:59;19.40;99.90
44775;DHT22;31340;51.402;0.016;2023-08-08T15:30:27;19.40;99.90
44775;DHT22;31340;51.402;0.016;2023-08-08T15:32:55;19.40;99.90
44775;DHT22;31340;51.402;0.016;2023-08-08T15:35:23;19.40;99.90
44775;DHT22;31340;51.402;0.016;2023-08-08T15:37:53;19.40;99.90
44775;DHT22;31340;51.402;0.016;2023-08-08T15:40:21;19.40;99.90
44775;DHT22;31340;51.402;0.016;2023-08-08T15:42:49;19.40;99.90
44775;DHT22;31340;51.402;0.016;2023-08-08T15:45:16;19.40;99.90
44775;DHT22;31340;51.402;0.016;2023-08-08T15:47:44;19.40;99.90
44775;DHT22;31340;51.402;0.016;2023-08-08T15:50:12;19.30;99.90